Time;durP1;ratioP1;P1;durP2;ratioP2;P2;SDS_P1;SDS_P2;PMS_P1;PMS_P2;Temp;Humidity;BMP_temperature;BMP_pressure;BME280_temperature;BME280_humidity;BME280_pressure;Samples;Min_cycle;Max_cycle;Signal;HPM_P1;HPM_P2
2021/10/22 00:00:28;;;;;;;3.80;1.00;;;12.40;93.40;;;;;;5055832;28;20644;-65
2021/10/22 00:02:55;;;;;;;1.13;0.43;;;12.20;94.60;;;;;;5054792;28;20217;-65
2021/10/22 00:05:22;;;;;;;0.93;0.70;;;12.10;96.00;;;;;;5053307;28;20194;-65
2021/10/22 00:07:48;;;;;;;1.10;0.70;;;11.90;97.00;;;;;;5059853;28;20252;-65
2021/10/22 00:10:15;;;;;;;1.60;0.57;;;11.70;97.90;;;;;;5061923;28;20205;-65
2021/10/22 00:12:42;;;;;;;2.43;0.60;;;11.50;98.50;;;;;;5064596;28;20212;-65
2021/10/22 00:15:10;;;;;;;2.30;0.83;;;11.20;99.00;;;;;;5053529;28;20218;-65
2021/10/22 00:17:39;;;;;;;2.50;0.50;;;11.10;99.30;;;;;;5060749;28;20212;-66
2021/10/22 00:20:09;;;;;;;1.40;0.73;;;11.00;99.60;;;;;;5052675;28;20225;-64
2021/10/22 00:22:36;;;;;;;2.10;0.50;;;10.90;99.90;;;;;;5059712;28;20208;-65
2021/10/22 00:25:04;;;;;;;0.83;0.80;;;10.70;99.90;;;;;;5070635;28;20637;-64
2021/10/22 00:27:31;;;;;;;0.53;0.50;;;10.70;99.90;;;;;;5069596;28;20234;-65
2021/10/22 00:29:58;;;;;;;1.17;0.47;;;10.60;99.90;;;;;;5055025;28;20300;-65
2021/10/22 00:32:25;;;;;;;1.10;0.73;;;10.50;99.90;;;;;;5059814;28;20599;-64
2021/10/22 00:34:53;;;;;;;3.63;0.73;;;10.40;99.90;;;;;;5060007;28;20209;-66
2021/10/22 00:37:21;;;;;;;1.17;0.40;;;10.40;99.90;;;;;;5057779;28;20794;-65
2021/10/22 00:39:48;;;;;;;1.97;0.60;;;10.40;99.90;;;;;;5052427;28;20666;-65
2021/10/22 00:42:16;;;;;;;0.90;0.50;;;10.30;99.90;;;;;;5055006;28;20210;-65
2021/10/22 00:44:43;;;;;;;1.63;0.60;;;10.30;99.90;;;;;;5059202;28;20311;-65
2021/10/22 00:47:10;;;;;;;0.87;0.57;;;10.20;99.90;;;;;;5053571;28;20206;-65
2021/10/22 00:49:37;;;;;;;1.60;0.90;;;10.10;99.90;;;;;;5060086;28;20202;-64
2021/10/22 00:52:06;;;;;;;1.50;0.70;;;10.20;99.90;;;;;;5054922;28;20211;-64
2021/10/22 00:54:33;;;;;;;2.43;0.60;;;10.20;99.90;;;;;;5062279;28;20550;-64
2021/10/22 00:57:01;;;;;;;0.40;0.40;;;10.10;99.90;;;;;;5056894;28;20225;-65
2021/10/22 00:59:28;;;;;;;0.70;0.60;;;10.10;99.90;;;;;;5068462;28;20712;-66
2021/10/22 01:01:55;;;;;;;1.80;0.67;;;10.10;99.90;;;;;;5056674;28;20293;-64
2021/10/22 01:04:22;;;;;;;1.13;0.60;;;10.10;99.90;;;;;;5062027;28;20265;-64
2021/10/22 01:06:49;;;;;;;2.63;0.80;;;10.10;99.90;;;;;;5056442;28;20219;-64
2021/10/22 01:09:18;;;;;;;2.07;0.90;;;10.10;99.90;;;;;;5054701;28;20201;-64
2021/10/22 01:11:45;;;;;;;1.47;0.60;;;10.10;99.90;;;;;;5052104;28;20206;-66
2021/10/22 01:14:14;;;;;;;0.40;0.40;;;10.10;99.90;;;;;;5052126;28;20210;-65
2021/10/22 01:16:41;;;;;;;1.73;0.60;;;10.10;99.90;;;;;;5061453;28;20288;-66
2021/10/22 01:19:13;;;;;;;2.03;0.70;;;10.10;99.90;;;;;;5051289;28;20217;-64
2021/10/22 01:21:42;;;;;;;1.00;0.40;;;10.10;99.90;;;;;;5062844;28;20633;-63
2021/10/22 01:24:09;;;;;;;2.07;0.67;;;10.10;99.90;;;;;;5052832;28;20205;-65
2021/10/22 01:26:36;;;;;;;0.93;0.60;;;10.00;99.90;;;;;;5051345;28;20292;-65
2021/10/22 01:29:03;;;;;;;2.00;0.70;;;10.10;99.90;;;;;;5069688;28;20646;-65
2021/10/22 01:31:30;;;;;;;2.87;0.80;;;10.10;99.90;;;;;;5056257;28;20202;-64
2021/10/22 01:33:58;;;;;;;0.70;0.57;;;10.00;99.90;;;;;;5053653;28;20217;-65
2021/10/22 01:36:26;;;;;;;1.90;0.70;;;10.10;99.90;;;;;;5052154;28;20658;-65
2021/10/22 01:38:54;;;;;;;1.83;0.57;;;10.10;99.90;;;;;;5052060;28;20291;-65
2021/10/22 01:41:22;;;;;;;2.53;0.70;;;10.10;99.90;;;;;;5057085;28;20460;-66
2021/10/22 01:43:50;;;;;;;2.37;0.53;;;10.00;99.90;;;;;;5060927;28;20573;-65
2021/10/22 01:46:17;;;;;;;1.00;0.53;;;10.00;99.40;;;;;;5057275;28;20588;-65
2021/10/22 01:48:45;;;;;;;1.37;0.70;;;10.00;98.80;;;;;;5061917;28;20208;-65
2021/10/22 01:51:12;;;;;;;0.63;0.50;;;9.90;99.10;;;;;;5053900;28;20332;-65
2021/10/22 01:53:39;;;;;;;0.63;0.57;;;9.90;98.90;;;;;;5051915;28;20216;-64
2021/10/22 01:56:07;;;;;;;2.47;0.70;;;9.80;98.60;;;;;;5054078;28;20236;-66
2021/10/22 01:58:34;;;;;;;2.03;0.90;;;9.70;98.50;;;;;;5055978;28;20259;-66
2021/10/22 02:01:01;;;;;;;4.67;1.10;;;9.80;98.40;;;;;;5050369;28;20240;-65
2021/10/22 02:03:28;;;;;;;3.17;0.93;;;9.70;98.10;;;;;;5063663;28;20575;-66
2021/10/22 02:05:54;;;;;;;4.17;0.63;;;9.70;98.10;;;;;;5059547;28;20293;-65
2021/10/22 02:08:21;;;;;;;0.87;0.60;;;9.70;98.10;;;;;;5058617;28;20709;-65
2021/10/22 02:10:48;;;;;;;1.57;0.90;;;9.70;98.10;;;;;;5066001;28;20194;-65
2021/10/22 02:13:16;;;;;;;3.10;0.83;;;9.70;97.90;;;;;;5051237;28;20300;-65
2021/10/22 02:15:43;;;;;;;2.17;0.90;;;9.70;97.60;;;;;;5051183;28;20210;-65
2021/10/22 02:18:10;;;;;;;3.73;0.97;;;9.70;97.40;;;;;;5055180;28;20673;-65
2021/10/22 02:20:39;;;;;;;4.17;1.00;;;9.60;97.30;;;;;;5058436;28;20286;-65
2021/10/22 02:23:05;;;;;;;3.57;0.83;;;9.60;97.20;;;;;;5058697;28;20216;-65
2021/10/22 02:25:32;;;;;;;3.57;0.90;;;9.60;97.10;;;;;;5051245;28;20224;-64
2021/10/22 02:27:59;;;;;;;2.17;0.73;;;9.60;97.50;;;;;;5054547;28;20216;-66
2021/10/22 02:30:27;;;;;;;2.33;0.80;;;9.60;97.70;;;;;;5064382;28;20210;-64
2021/10/22 02:32:54;;;;;;;1.73;0.83;;;9.50;97.80;;;;;;5063514;28;20241;-64
2021/10/22 02:35:21;;;;;;;2.07;0.90;;;9.40;97.60;;;;;;5056499;28;20206;-65
2021/10/22 02:37:48;;;;;;;5.23;0.80;;;9.50;97.90;;;;;;5054740;28;20241;-66
2021/10/22 02:40:16;;;;;;;1.30;0.70;;;9.50;98.10;;;;;;5055005;28;20222;-66
2021/10/22 02:42:43;;;;;;;2.00;0.87;;;9.50;98.20;;;;;;5052426;28;20217;-65
2021/10/22 02:45:10;;;;;;;2.27;0.90;;;9.40;98.30;;;;;;5054310;28;20300;-65
2021/10/22 02:47:39;;;;;;;3.80;0.77;;;9.40;98.50;;;;;;5057002;28;20210;-65
2021/10/22 02:50:06;;;;;;;3.47;0.70;;;9.40;98.60;;;;;;5072607;28;20568;-65
2021/10/22 02:52:33;;;;;;;1.70;0.73;;;9.40;98.70;;;;;;5059390;28;20210;-65
2021/10/22 02:55:00;;;;;;;2.07;0.80;;;9.40;98.60;;;;;;5073818;28;20213;-65
2021/10/22 02:57:27;;;;;;;2.57;1.07;;;9.30;98.60;;;;;;5063774;28;20256;-66
2021/10/22 02:59:54;;;;;;;4.33;0.83;;;9.30;98.60;;;;;;5060819;28;20221;-65
2021/10/22 03:02:21;;;;;;;3.47;0.97;;;9.30;98.60;;;;;;5062929;28;20245;-66
2021/10/22 03:04:49;;;;;;;5.53;0.93;;;9.30;98.60;;;;;;5064112;28;20210;-65
2021/10/22 03:07:16;;;;;;;3.53;0.93;;;9.40;98.70;;;;;;5069554;28;20283;-65
2021/10/22 03:09:43;;;;;;;2.73;1.10;;;9.40;98.70;;;;;;5064981;28;20416;-65
2021/10/22 03:12:10;;;;;;;4.70;1.50;;;9.40;98.70;;;;;;5058738;28;20213;-66
2021/10/22 03:14:37;;;;;;;2.33;1.10;;;9.40;98.70;;;;;;5065403;28;20209;-65
2021/10/22 03:17:04;;;;;;;3.30;0.70;;;9.40;98.80;;;;;;5054022;28;20205;-66
2021/10/22 03:19:31;;;;;;;2.67;0.77;;;9.40;99.00;;;;;;5068417;28;20741;-65
2021/10/22 03:21:59;;;;;;;3.47;0.93;;;9.40;99.10;;;;;;5056958;28;20201;-64
2021/10/22 03:24:26;;;;;;;1.70;0.83;;;9.50;99.20;;;;;;5064184;28;20209;-65
2021/10/22 03:26:53;;;;;;;3.03;1.20;;;9.50;99.30;;;;;;5054151;28;20214;-65
2021/10/22 03:29:20;;;;;;;3.20;1.00;;;9.40;99.40;;;;;;5057091;28;20260;-65
2021/10/22 03:31:47;;;;;;;3.43;0.93;;;9.50;99.30;;;;;;5054937;28;20214;-66
2021/10/22 03:34:14;;;;;;;3.60;1.27;;;9.40;99.10;;;;;;5055272;28;20216;-65
2021/10/22 03:36:41;;;;;;;3.40;1.10;;;9.50;98.90;;;;;;5067748;28;20202;-64
2021/10/22 03:39:10;;;;;;;3.60;0.90;;;9.40;98.80;;;;;;5065972;28;20436;-65
2021/10/22 03:41:36;;;;;;;2.77;1.07;;;9.40;99.00;;;;;;5058535;28;20252;-65
2021/10/22 03:44:04;;;;;;;8.13;1.60;;;9.40;98.90;;;;;;5059766;28;20206;-65
2021/10/22 03:46:31;;;;;;;3.77;1.30;;;9.40;98.70;;;;;;5071019;28;20210;-65
2021/10/22 03:48:57;;;;;;;2.93;1.13;;;9.40;98.70;;;;;;5057302;28;20210;-65
2021/10/22 03:51:24;;;;;;;4.40;1.00;;;9.30;98.70;;;;;;5059693;28;20255;-65
2021/10/22 03:53:51;;;;;;;1.90;1.00;;;9.30;98.70;;;;;;5054545;28;20292;-65
2021/10/22 03:56:20;;;;;;;2.63;0.77;;;9.20;98.60;;;;;;5069531;28;20229;-66
2021/10/22 03:58:47;;;;;;;4.43;1.10;;;9.30;98.70;;;;;;5059287;28;20781;-66
2021/10/22 04:01:14;;;;;;;2.63;1.30;;;9.30;98.70;;;;;;5064600;28;20233;-66
2021/10/22 04:03:41;;;;;;;4.17;0.97;;;9.20;98.60;;;;;;5058369;28;20210;-65
2021/10/22 04:06:07;;;;;;;1.37;1.03;;;9.20;98.60;;;;;;5059082;28;20216;-66
2021/10/22 04:08:34;;;;;;;2.57;1.17;;;9.20;98.60;;;;;;5061962;28;20209;-66
2021/10/22 04:11:01;;;;;;;2.30;1.10;;;9.20;98.60;;;;;;5066744;28;20283;-64
2021/10/22 04:13:29;;;;;;;4.17;1.10;;;9.20;98.70;;;;;;5066871;28;20725;-64
2021/10/22 04:15:56;;;;;;;2.93;1.00;;;9.10;98.90;;;;;;5057198;28;20203;-64
2021/10/22 04:18:23;;;;;;;4.00;1.10;;;9.20;98.90;;;;;;5059051;28;20224;-65
2021/10/22 04:20:50;;;;;;;4.43;1.30;;;9.20;99.00;;;;;;5059298;28;20241;-64
2021/10/22 04:23:17;;;;;;;2.97;1.30;;;9.20;99.00;;;;;;5059585;28;20210;-65
2021/10/22 04:25:44;;;;;;;3.27;1.10;;;9.10;99.00;;;;;;5056776;28;20209;-65
2021/10/22 04:28:11;;;;;;;3.80;1.20;;;9.10;99.00;;;;;;5056677;28;20750;-64
2021/10/22 04:30:39;;;;;;;2.07;1.07;;;9.00;99.10;;;;;;5062110;28;20202;-65
2021/10/22 04:33:06;;;;;;;3.17;1.10;;;9.00;99.30;;;;;;5058952;28;20672;-64
2021/10/22 04:35:33;;;;;;;3.63;1.20;;;8.90;99.40;;;;;;5055564;28;20709;-63
2021/10/22 04:40:29;;;;;;;5.20;1.43;;;8.90;99.50;;;;;;5061949;28;20221;-65
2021/10/22 04:40:51;;;;;;;3.40;1.10;;;8.90;99.60;;;;;;5071218;28;20225;-65
2021/10/22 04:43:19;;;;;;;2.93;1.30;;;8.80;99.50;;;;;;5066112;28;20197;-66
2021/10/22 04:45:50;;;;;;;3.20;0.90;;;8.80;99.70;;;;;;5063745;28;20205;-64
2021/10/22 04:48:17;;;;;;;4.13;1.40;;;8.80;99.70;;;;;;5064037;28;20228;-67
2021/10/22 04:50:47;;;;;;;4.13;1.07;;;8.70;99.70;;;;;;5051564;28;20301;-65
2021/10/22 04:53:14;;;;;;;3.53;1.47;;;8.70;99.80;;;;;;5052628;28;20214;-65
2021/10/22 04:55:41;;;;;;;3.70;1.30;;;8.60;99.90;;;;;;5051647;28;20209;-67
2021/10/22 04:58:09;;;;;;;5.07;1.30;;;8.60;99.90;;;;;;5052099;28;20251;-65
2021/10/22 05:00:36;;;;;;;6.20;1.57;;;8.60;99.90;;;;;;5061921;28;20305;-65
2021/10/22 05:03:04;;;;;;;3.63;1.47;;;8.50;99.90;;;;;;5058287;28;20642;-64
2021/10/22 05:05:31;;;;;;;2.37;1.10;;;8.50;99.90;;;;;;5064656;28;20217;-66
2021/10/22 05:07:58;;;;;;;4.10;1.63;;;8.40;99.90;;;;;;5053069;28;20221;-64
2021/10/22 05:10:25;;;;;;;3.63;1.40;;;8.40;99.90;;;;;;5051357;28;20209;-64
2021/10/22 05:12:52;;;;;;;4.87;1.60;;;8.40;99.90;;;;;;5051889;28;20296;-65
2021/10/22 05:15:19;;;;;;;5.30;1.27;;;8.50;99.90;;;;;;5055584;28;20201;-66
2021/10/22 05:17:45;;;;;;;4.67;1.40;;;8.50;99.90;;;;;;5054390;28;20296;-65
2021/10/22 05:20:14;;;;;;;5.60;1.27;;;8.50;99.90;;;;;;5056206;28;21752;-65
2021/10/22 05:22:41;;;;;;;5.37;1.10;;;8.50;99.90;;;;;;5058758;28;20225;-66
2021/10/22 05:25:11;;;;;;;4.63;1.63;;;8.50;99.90;;;;;;5064878;28;20201;-67
2021/10/22 05:27:38;;;;;;;6.07;1.50;;;8.50;99.90;;;;;;5056249;28;20285;-70
2021/10/22 05:30:07;;;;;;;4.00;1.27;;;8.50;99.90;;;;;;5065087;28;20206;-70
2021/10/22 05:32:34;;;;;;;4.40;1.70;;;8.40;99.90;;;;;;5060803;28;20447;-68
2021/10/22 05:35:01;;;;;;;3.30;1.50;;;8.30;99.90;;;;;;5064823;28;20205;-68
2021/10/22 05:37:29;;;;;;;3.53;1.27;;;8.30;99.90;;;;;;5063230;28;20304;-69
2021/10/22 05:39:57;;;;;;;5.73;1.47;;;8.30;99.90;;;;;;5066501;28;20302;-70
2021/10/22 05:42:24;;;;;;;2.88;1.35;;;8.30;99.90;;;;;;5058406;28;20439;-69
2021/10/22 05:44:51;;;;;;;8.93;1.80;;;8.20;99.90;;;;;;5069163;28;20666;-68
2021/10/22 05:47:17;;;;;;;5.53;1.20;;;8.10;99.90;;;;;;5068055;28;20201;-69
2021/10/22 05:49:44;;;;;;;2.97;1.30;;;8.20;99.90;;;;;;5069362;28;20213;-69
2021/10/22 05:52:11;;;;;;;5.47;2.00;;;8.20;99.90;;;;;;5068085;28;20281;-71
2021/10/22 05:54:39;;;;;;;4.20;1.63;;;8.10;99.90;;;;;;5071727;28;21307;-67
2021/10/22 05:57:06;;;;;;;2.90;1.13;;;8.10;99.90;;;;;;5069566;28;20753;-69
2021/10/22 05:59:34;;;;;;;4.93;1.57;;;8.10;99.90;;;;;;5060281;28;20225;-69
2021/10/22 06:02:01;;;;;;;5.30;1.57;;;8.10;99.90;;;;;;5063913;28;20234;-69
2021/10/22 06:04:27;;;;;;;3.13;1.20;;;8.10;99.90;;;;;;5057033;28;20228;-69
2021/10/22 06:06:55;;;;;;;3.57;1.50;;;8.10;99.90;;;;;;5063622;28;20208;-69
2021/10/22 06:09:22;;;;;;;3.20;1.10;;;8.20;99.90;;;;;;5067875;28;20209;-69
2021/10/22 06:11:51;;;;;;;7.00;1.97;;;8.20;99.90;;;;;;5063386;28;20293;-68
2021/10/22 06:14:18;;;;;;;6.20;1.63;;;8.20;99.90;;;;;;5069772;28;20229;-69
2021/10/22 06:16:45;;;;;;;4.17;1.27;;;8.30;99.90;;;;;;5069630;28;20215;-69
2021/10/22 06:19:16;;;;;;;3.60;1.30;;;8.40;99.90;;;;;;5065969;28;20228;-68
2021/10/22 06:21:55;;;;;;;5.63;1.90;;;8.40;99.90;;;;;;5068489;28;20221;-69
2021/10/22 06:24:22;;;;;;;5.03;1.40;;;8.40;99.90;;;;;;5061090;28;20221;-68
2021/10/22 06:26:50;;;;;;;3.80;1.13;;;8.50;99.90;;;;;;5062744;28;20575;-69
2021/10/22 06:29:17;;;;;;;2.60;1.30;;;8.60;99.90;;;;;;5059605;28;20295;-68
2021/10/22 06:31:44;;;;;;;7.40;1.27;;;8.60;99.90;;;;;;5060155;28;20212;-68
2021/10/22 06:34:11;;;;;;;5.30;1.40;;;8.70;99.90;;;;;;5060445;28;20259;-68
2021/10/22 06:36:38;;;;;;;3.40;1.20;;;8.70;99.70;;;;;;5070409;28;20209;-66
2021/10/22 06:39:06;;;;;;;6.13;1.57;;;8.80;99.50;;;;;;5075494;28;20209;-68
2021/10/22 06:41:33;;;;;;;4.20;1.97;;;8.80;99.50;;;;;;5068401;28;20229;-67
2021/10/22 06:44:02;;;;;;;7.50;1.20;;;8.90;99.30;;;;;;5063916;28;20217;-68
2021/10/22 06:46:29;;;;;;;3.80;1.10;;;9.00;99.20;;;;;;5068596;28;20205;-67
2021/10/22 06:48:56;;;;;;;4.10;1.33;;;9.20;99.30;;;;;;5072275;28;20212;-67
2021/10/22 06:51:23;;;;;;;5.13;1.30;;;9.50;99.50;;;;;;5059159;28;20288;-69
2021/10/22 06:53:50;;;;;;;4.40;1.77;;;9.70;98.50;;;;;;5069870;28;20268;-68
2021/10/22 06:56:17;;;;;;;2.80;1.20;;;9.80;98.20;;;;;;5065942;28;20221;-66
2021/10/22 06:58:44;;;;;;;4.67;1.63;;;9.80;97.90;;;;;;5070257;28;20476;-67
2021/10/22 07:01:12;;;;;;;4.13;1.27;;;9.80;97.90;;;;;;5066086;28;20217;-67
2021/10/22 07:03:41;;;;;;;4.67;1.50;;;9.90;97.90;;;;;;5067972;28;20261;-66
2021/10/22 07:08:56;;;;;;;3.93;1.37;;;9.90;97.70;;;;;;5037070;28;20697;-68
2021/10/22 07:11:24;;;;;;;3.83;1.37;;;9.90;97.60;;;;;;5061061;28;20229;-65
2021/10/22 07:13:53;;;;;;;4.33;1.47;;;9.90;97.90;;;;;;5057932;28;20241;-68
2021/10/22 07:16:23;;;;;;;5.27;1.60;;;9.90;97.50;;;;;;5064187;28;20201;-68
2021/10/22 07:18:50;;;;;;;3.40;1.70;;;9.80;97.40;;;;;;5073832;28;20284;-67
2021/10/22 07:21:18;;;;;;;5.17;1.67;;;9.80;97.60;;;;;;5055422;28;20226;-70
2021/10/22 07:23:47;;;;;;;3.53;1.20;;;9.80;97.70;;;;;;5065179;28;20227;-70
2021/10/22 07:26:14;;;;;;;4.73;1.37;;;9.80;97.70;;;;;;5066457;28;20288;-69
2021/10/22 07:28:41;;;;;;;6.37;1.30;;;9.80;97.80;;;;;;5069752;28;20226;-70
2021/10/22 07:31:11;;;;;;;2.93;1.57;;;9.80;97.80;;;;;;5062664;28;20208;-67
2021/10/22 07:33:40;;;;;;;5.73;1.43;;;9.80;97.60;;;;;;5057636;28;20220;-69
2021/10/22 07:36:09;;;;;;;5.17;1.50;;;9.80;97.60;;;;;;5058435;28;20240;-69
2021/10/22 07:38:36;;;;;;;6.20;1.57;;;9.80;97.90;;;;;;5070242;28;20302;-68
2021/10/22 07:41:03;;;;;;;5.07;1.77;;;9.80;97.60;;;;;;5064389;28;20222;-69
2021/10/22 07:43:31;;;;;;;2.23;1.40;;;9.90;97.70;;;;;;5061087;28;20275;-69
2021/10/22 07:45:59;;;;;;;5.10;1.43;;;10.10;96.90;;;;;;5054319;28;20206;-67
2021/10/22 07:48:26;;;;;;;7.97;1.90;;;10.20;96.50;;;;;;5052576;28;20259;-68
2021/10/22 07:50:54;;;;;;;3.93;1.60;;;10.50;96.60;;;;;;5068524;28;20225;-69
2021/10/22 07:53:21;;;;;;;6.50;1.87;;;10.70;96.00;;;;;;5071140;28;20476;-69
2021/10/22 07:55:48;;;;;;;7.20;2.93;;;10.90;95.60;;;;;;5057794;28;20646;-69
2021/10/22 07:58:15;;;;;;;7.00;1.40;;;10.90;95.10;;;;;;5055666;28;20587;-68
2021/10/22 08:00:41;;;;;;;7.17;1.70;;;11.10;95.20;;;;;;5056429;28;20288;-70
2021/10/22 08:03:08;;;;;;;5.50;1.40;;;11.20;94.60;;;;;;5067920;28;20201;-69
2021/10/22 08:05:35;;;;;;;7.50;1.83;;;11.20;94.20;;;;;;5058074;28;20202;-68
2021/10/22 08:08:05;;;;;;;4.07;1.27;;;11.20;94.10;;;;;;5056690;28;20230;-69
2021/10/22 08:10:32;;;;;;;4.23;1.50;;;11.20;93.80;;;;;;5056309;28;20737;-69
2021/10/22 08:13:01;;;;;;;7.13;1.83;;;11.10;93.90;;;;;;5062094;28;20202;-68
2021/10/22 08:15:28;;;;;;;7.40;1.90;;;11.20;94.00;;;;;;5056918;28;20193;-69
2021/10/22 08:17:56;;;;;;;8.93;1.80;;;11.20;93.90;;;;;;5056842;28;20255;-69
2021/10/22 08:20:24;;;;;;;4.10;1.40;;;11.20;93.70;;;;;;5054813;28;20213;-68
2021/10/22 08:22:51;;;;;;;9.47;1.80;;;11.30;93.70;;;;;;5058844;28;20296;-69
2021/10/22 08:25:21;;;;;;;4.27;1.73;;;11.30;93.40;;;;;;5061166;28;20205;-69
2021/10/22 08:27:49;;;;;;;6.53;1.90;;;11.30;93.30;;;;;;5058486;28;20602;-68
2021/10/22 08:30:21;;;;;;;9.23;1.90;;;11.30;93.10;;;;;;5058491;28;20202;-69
2021/10/22 08:32:50;;;;;;;8.87;2.03;;;11.30;93.30;;;;;;5067266;28;20208;-68
2021/10/22 08:35:17;;;;;;;4.67;1.30;;;11.40;93.30;;;;;;5055960;28;20209;-69
2021/10/22 08:37:45;;;;;;;6.47;2.00;;;11.60;93.20;;;;;;5060216;28;20563;-68
2021/10/22 08:40:13;;;;;;;6.90;2.10;;;11.60;92.50;;;;;;5059390;28;20576;-68
2021/10/22 08:42:43;;;;;;;7.40;2.20;;;11.60;92.50;;;;;;5062081;28;20224;-69
2021/10/22 08:45:11;;;;;;;11.13;1.90;;;11.60;92.00;;;;;;5060912;28;20231;-70
2021/10/22 08:47:38;;;;;;;4.03;1.77;;;11.70;92.10;;;;;;5068712;28;20758;-70
2021/10/22 08:50:08;;;;;;;8.17;2.00;;;11.90;92.70;;;;;;5063238;28;20210;-69
2021/10/22 08:52:36;;;;;;;6.97;1.90;;;12.50;93.20;;;;;;5064415;28;20212;-69
2021/10/22 08:55:05;;;;;;;7.60;3.03;;;13.20;91.10;;;;;;5062016;28;20225;-67
2021/10/22 08:57:32;;;;;;;3.97;1.73;;;13.80;90.00;;;;;;5059176;28;20728;-66
2021/10/22 09:00:03;;;;;;;5.97;1.33;;;14.20;88.40;;;;;;5073975;28;20205;-68
2021/10/22 09:02:30;;;;;;;2.73;1.40;;;14.80;87.40;;;;;;5073394;28;20308;-68
2021/10/22 09:04:59;;;;;;;9.03;1.53;;;15.40;83.80;;;;;;5064587;28;20635;-69
2021/10/22 09:07:41;;;;;;;4.70;1.53;;;16.40;81.50;;;;;;5058592;28;20202;-68
2021/10/22 09:10:11;;;;;;;6.90;1.77;;;17.40;76.50;;;;;;5061676;28;20235;-69
2021/10/22 09:12:42;;;;;;;3.93;1.70;;;18.20;71.40;;;;;;5070044;28;20270;-68
2021/10/22 09:15:11;;;;;;;8.03;1.63;;;18.00;68.10;;;;;;5060604;28;20525;-68
2021/10/22 09:17:38;;;;;;;3.20;1.47;;;17.60;67.30;;;;;;5058436;28;20235;-68
2021/10/22 09:20:07;;;;;;;3.80;1.47;;;17.00;67.20;;;;;;5059598;28;20719;-67
2021/10/22 09:22:34;;;;;;;4.20;1.93;;;16.40;68.00;;;;;;5055040;28;20259;-69
2021/10/22 09:25:05;;;;;;;4.83;2.00;;;15.80;69.20;;;;;;5066652;28;20568;-68
2021/10/22 09:27:34;;;;;;;6.60;1.70;;;15.30;69.90;;;;;;5070195;28;20202;-69
2021/10/22 09:30:01;;;;;;;4.70;1.50;;;14.80;70.40;;;;;;5070148;28;20233;-69
2021/10/22 09:32:31;;;;;;;7.23;1.90;;;14.40;71.90;;;;;;5058261;28;20233;-68
2021/10/22 09:34:58;;;;;;;7.97;2.03;;;14.10;74.40;;;;;;5067822;28;20206;-70
2021/10/22 09:37:25;;;;;;;6.90;2.10;;;14.10;75.20;;;;;;5072873;28;20289;-70
2021/10/22 09:39:58;;;;;;;7.90;2.07;;;14.00;74.30;;;;;;5068218;28;20214;-68
2021/10/22 09:42:24;;;;;;;7.77;2.87;;;14.00;74.10;;;;;;5062926;28;20221;-69
2021/10/22 09:44:51;;;;;;;4.53;1.77;;;13.70;74.00;;;;;;5069797;28;20204;-69
2021/10/22 09:47:20;;;;;;;2.60;1.53;;;13.40;74.90;;;;;;5061595;28;20569;-69
2021/10/22 09:49:51;;;;;;;7.23;2.00;;;13.20;75.60;;;;;;5067328;28;20582;-68
2021/10/22 09:52:19;;;;;;;7.40;2.23;;;13.00;76.10;;;;;;5061666;28;20576;-68
2021/10/22 09:54:47;;;;;;;9.63;2.00;;;12.80;76.60;;;;;;5064710;28;20307;-70
2021/10/22 09:57:16;;;;;;;6.37;2.37;;;12.60;77.40;;;;;;5056566;28;20274;-70
2021/10/22 09:59:44;;;;;;;7.70;2.43;;;12.60;78.70;;;;;;5055329;28;20329;-68
2021/10/22 10:02:12;;;;;;;10.23;2.30;;;12.80;79.70;;;;;;5062649;28;20592;-69
2021/10/22 10:04:38;;;;;;;8.47;2.07;;;13.10;79.90;;;;;;5066195;28;20204;-70
2021/10/22 10:07:08;;;;;;;11.50;2.27;;;13.50;78.50;;;;;;5056606;28;20300;-68
2021/10/22 10:09:37;;;;;;;11.10;2.30;;;13.80;78.00;;;;;;5058903;28;20631;-69
2021/10/22 10:12:05;;;;;;;8.15;1.98;;;14.00;76.60;;;;;;5062337;28;20470;-67
2021/10/22 10:14:32;;;;;;;5.87;1.90;;;14.20;75.50;;;;;;5062685;28;20731;-68
2021/10/22 10:17:00;;;;;;;7.03;2.10;;;15.00;74.20;;;;;;5063887;28;20449;-69
2021/10/22 10:19:32;;;;;;;5.43;1.77;;;15.90;72.80;;;;;;5061997;28;20658;-69
2021/10/22 10:22:02;;;;;;;4.10;2.30;;;16.80;70.10;;;;;;5058531;28;20579;-68
2021/10/22 10:24:34;;;;;;;7.07;2.03;;;17.80;68.00;;;;;;5055883;28;20676;-69
2021/10/22 10:27:06;;;;;;;7.07;2.07;;;18.80;62.90;;;;;;5056846;28;20716;-70
2021/10/22 10:29:34;;;;;;;5.60;1.90;;;19.10;62.80;;;;;;5053398;28;20213;-67
2021/10/22 10:32:05;;;;;;;11.65;3.63;;;19.50;60.30;;;;;;5054525;28;20194;-69
2021/10/22 10:34:48;;;;;;;7.85;1.90;;;19.70;58.80;;;;;;5058445;28;20208;-71
2021/10/22 10:37:42;;;;;;;7.55;2.00;;;21.10;61.70;;;;;;5059617;28;20206;-68
2021/10/22 10:40:26;;;;;;;5.38;2.13;;;22.40;54.00;;;;;;5056415;28;20265;-68
2021/10/22 10:42:54;;;;;;;8.20;2.35;;;22.80;51.50;;;;;;5057182;28;20233;-70
2021/10/22 10:45:44;;;;;;;6.60;2.15;;;22.40;50.20;;;;;;5061949;28;20661;-71
2021/10/22 10:48:17;;;;;;;5.50;1.83;;;22.50;54.30;;;;;;5054768;28;20217;-71
2021/10/22 10:50:49;;;;;;;3.60;1.50;;;23.50;49.80;;;;;;5061824;28;20786;-70
2021/10/22 10:53:18;;;;;;;9.15;2.03;;;23.70;46.70;;;;;;5060131;28;20194;-70
2021/10/22 10:55:48;;;;;;;8.93;1.90;;;23.00;47.60;;;;;;5055526;28;20243;-69
2021/10/22 10:58:18;;;;;;;6.63;2.05;;;22.30;48.20;;;;;;5054613;28;20637;-70
2021/10/22 11:00:46;;;;;;;7.30;1.85;;;22.60;53.00;;;;;;5059640;28;20267;-70
2021/10/22 11:03:19;;;;;;;7.70;2.00;;;24.30;48.70;;;;;;5069623;28;20840;-70
2021/10/22 11:06:07;;;;;;;4.60;1.70;;;25.80;45.00;;;;;;5054006;28;20210;-71
2021/10/22 11:08:43;;;;;;;7.28;2.45;;;25.30;42.70;;;;;;5072210;28;20236;-71
2021/10/22 11:11:29;;;;;;;8.00;2.03;;;24.10;43.00;;;;;;5067850;28;20205;-71
2021/10/22 11:14:09;;;;;;;7.03;2.15;;;22.70;43.90;;;;;;5056757;28;20585;-71
2021/10/22 11:16:41;;;;;;;5.93;1.88;;;21.50;46.80;;;;;;5068086;28;20299;-71
2021/10/22 11:19:10;;;;;;;5.50;1.65;;;20.90;47.70;;;;;;5071975;28;20209;-70
2021/10/22 11:21:39;;;;;;;5.53;1.90;;;20.20;48.20;;;;;;5063891;28;20213;-70
2021/10/22 11:24:08;;;;;;;5.88;1.58;;;20.00;48.60;;;;;;5065195;28;20209;-70
2021/10/22 11:26:36;;;;;;;3.60;1.48;;;19.70;47.70;;;;;;5065181;28;20668;-69
2021/10/22 11:29:16;;;;;;;3.67;1.58;;;18.90;48.20;;;;;;5067206;28;20300;-71
2021/10/22 11:31:44;;;;;;;3.97;1.67;;;18.10;49.80;;;;;;5073116;28;20229;-70
2021/10/22 11:34:15;;;;;;;3.88;1.58;;;17.40;50.90;;;;;;5063986;28;20648;-71
2021/10/22 11:36:55;;;;;;;6.23;1.70;;;16.70;52.00;;;;;;5069664;28;20481;-70
2021/10/22 11:39:24;;;;;;;5.67;1.70;;;16.10;53.70;;;;;;5068237;28;20644;-69
2021/10/22 11:42:24;;;;;;;4.93;1.77;;;15.70;55.30;;;;;;5063981;28;20210;-70
2021/10/22 11:44:55;;;;;;;5.03;1.60;;;15.70;56.00;;;;;;5053274;28;20221;-71
2021/10/22 11:47:30;;;;;;;8.73;2.50;;;16.00;56.70;;;;;;5062963;28;20205;-68
2021/10/22 11:50:07;;;;;;;3.93;1.73;;;16.90;57.40;;;;;;5059910;28;20733;-67
2021/10/22 11:52:34;;;;;;;2.93;1.43;;;18.30;53.90;;;;;;5062996;28;20605;-69
2021/10/22 11:55:01;;;;;;;5.17;2.00;;;19.20;51.40;;;;;;5062729;28;20516;-68
2021/10/22 11:57:29;;;;;;;4.53;1.70;;;19.40;49.90;;;;;;5056577;28;20225;-68
2021/10/22 11:59:57;;;;;;;4.97;2.03;;;19.10;49.90;;;;;;5055990;28;20233;-69
2021/10/22 12:02:25;;;;;;;7.40;1.70;;;18.50;49.50;;;;;;5071480;28;20275;-68
2021/10/22 12:05:00;;;;;;;6.17;1.83;;;16.90;50.90;;;;;;5067636;28;20252;-68
2021/10/22 12:07:29;;;;;;;7.80;2.00;;;16.80;51.60;;;;;;5057164;28;20202;-73
2021/10/22 12:09:56;;;;;;;5.43;1.83;;;16.10;52.90;;;;;;5057994;28;20205;-68
2021/10/22 12:12:44;;;;;;;8.43;2.00;;;15.40;54.10;;;;;;5076991;28;20201;-74
2021/10/22 12:15:14;;;;;;;5.77;1.63;;;14.90;55.40;;;;;;5067574;28;20622;-75
2021/10/22 12:17:43;;;;;;;3.83;1.87;;;14.40;55.80;;;;;;5072249;28;20208;-72
2021/10/22 12:20:11;;;;;;;4.93;1.70;;;14.00;56.50;;;;;;5087866;28;20201;-71
2021/10/22 12:22:50;;;;;;;13.03;2.10;;;13.60;57.30;;;;;;5070632;28;20233;-71
2021/10/22 12:25:20;;;;;;;5.73;1.57;;;13.30;57.90;;;;;;5074855;28;20570;-71
2021/10/22 12:27:48;;;;;;;8.70;1.97;;;13.10;58.90;;;;;;5066070;28;20233;-71
2021/10/22 12:30:17;;;;;;;3.80;1.50;;;12.90;59.70;;;;;;5063845;28;20669;-71
2021/10/22 12:32:47;;;;;;;5.63;1.73;;;12.70;60.30;;;;;;5074323;28;20255;-72
2021/10/22 12:35:24;;;;;;;8.93;2.10;;;12.60;61.20;;;;;;5075589;28;20251;-71
2021/10/22 12:38:04;;;;;;;5.23;1.70;;;12.50;61.60;;;;;;5065240;28;20211;-72
2021/10/22 12:40:35;;;;;;;5.13;2.10;;;12.50;62.00;;;;;;5059669;28;20700;-71
2021/10/22 12:43:12;;;;;;;6.83;1.53;;;12.40;62.30;;;;;;5074138;28;20206;-71
2021/10/22 12:45:46;;;;;;;5.67;1.40;;;12.30;62.50;;;;;;5068613;28;20233;-70
2021/10/22 12:48:15;;;;;;;4.93;2.00;;;12.20;63.10;;;;;;5068355;28;20723;-69
2021/10/22 12:50:42;;;;;;;6.03;1.83;;;12.20;63.50;;;;;;5075615;28;20198;-71
2021/10/22 12:53:13;;;;;;;3.93;1.60;;;12.10;63.90;;;;;;5070906;28;20231;-71
2021/10/22 12:55:41;;;;;;;6.13;1.53;;;12.10;64.10;;;;;;5075968;28;20201;-72
2021/10/22 12:58:30;;;;;;;4.90;1.50;;;12.00;64.40;;;;;;5067370;28;20237;-70
2021/10/22 13:01:13;;;;;;;5.03;1.90;;;12.00;64.80;;;;;;5063968;28;20296;-71